createdAt,value
2018-12-21T00:00:05.838Z,1.70
2018-12-21T00:02:34.374Z,1.70
2018-12-21T00:05:02.994Z,1.80
2018-12-21T00:07:31.508Z,1.80
2018-12-21T00:10:00.049Z,1.80
2018-12-21T00:12:28.658Z,1.70
2018-12-21T00:14:57.154Z,1.70
2018-12-21T00:17:25.666Z,1.70
2018-12-21T00:19:54.181Z,1.80
2018-12-21T00:22:22.695Z,1.80
2018-12-21T00:24:51.206Z,1.80
2018-12-21T00:27:19.719Z,1.80
2018-12-21T00:29:48.229Z,1.80
2018-12-21T00:32:21.944Z,1.80
2018-12-21T00:34:55.731Z,1.80
2018-12-21T00:37:29.414Z,1.80
2018-12-21T00:40:03.135Z,1.90
2018-12-21T00:43:12.145Z,1.90
2018-12-21T00:45:44.244Z,1.90
2018-12-21T00:48:12.764Z,2.00
2018-12-21T00:50:41.266Z,2.00
2018-12-21T00:53:09.767Z,2.00
2018-12-21T00:55:38.298Z,2.00
2018-12-21T00:58:06.815Z,1.90
2018-12-21T01:00:35.322Z,2.00
2018-12-21T01:03:03.850Z,2.00
2018-12-21T01:05:32.378Z,2.00
2018-12-21T01:08:00.928Z,2.00
2018-12-21T01:10:29.573Z,2.10
2018-12-21T01:12:58.199Z,2.10
2018-12-21T01:15:26.842Z,2.10
2018-12-21T01:17:55.329Z,2.10
2018-12-21T01:20:23.824Z,2.10
2018-12-21T01:22:52.350Z,2.10
2018-12-21T01:25:20.848Z,2.20
2018-12-21T01:27:49.320Z,2.20
2018-12-21T01:30:17.871Z,2.20
2018-12-21T01:32:46.372Z,2.20
2018-12-21T01:35:14.873Z,2.20
2018-12-21T01:37:43.449Z,2.20
2018-12-21T01:40:12.121Z,2.20
2018-12-21T01:42:40.600Z,2.10
2018-12-21T01:45:09.289Z,2.10
2018-12-21T01:47:37.780Z,2.10
2018-12-21T01:50:06.329Z,2.20
2018-12-21T01:52:34.844Z,2.20
2018-12-21T01:55:03.531Z,2.20
2018-12-21T01:57:32.169Z,2.20
2018-12-21T02:00:00.654Z,2.20
2018-12-21T02:02:29.184Z,2.20
2018-12-21T02:04:57.721Z,2.20
2018-12-21T02:07:26.260Z,2.20
2018-12-21T02:09:54.785Z,2.20
2018-12-21T02:12:23.290Z,2.20
2018-12-21T02:14:51.930Z,2.20
2018-12-21T02:17:20.432Z,2.20
2018-12-21T02:19:49.550Z,2.20
2018-12-21T02:22:18.020Z,2.20
2018-12-21T02:24:46.516Z,2.10
2018-12-21T02:27:15.010Z,2.20
2018-12-21T02:29:43.504Z,2.20
2018-12-21T02:32:12.013Z,2.20
2018-12-21T02:34:40.514Z,2.30
2018-12-21T02:37:09.014Z,2.30
2018-12-21T02:39:37.520Z,2.30
2018-12-21T02:42:06.014Z,2.40
2018-12-21T02:44:34.507Z,2.40
2018-12-21T02:47:03.104Z,2.50
2018-12-21T02:49:31.611Z,2.40
2018-12-21T02:52:05.331Z,2.50
2018-12-21T02:54:30.661Z,2.50
2018-12-21T02:56:59.203Z,2.60
2018-12-21T02:59:27.721Z,2.60
2018-12-21T03:01:56.223Z,2.70
2018-12-21T03:04:24.721Z,2.70
2018-12-21T03:06:53.245Z,2.70
2018-12-21T03:09:21.718Z,2.70
2018-12-21T03:11:50.216Z,2.70
2018-12-21T03:14:18.710Z,2.70
2018-12-21T03:16:47.234Z,2.60
2018-12-21T03:19:15.720Z,2.60
2018-12-21T03:21:44.223Z,2.60
2018-12-21T03:24:12.737Z,2.50
2018-12-21T03:26:41.261Z,2.50
2018-12-21T03:29:09.786Z,2.50
2018-12-21T03:31:38.289Z,2.40
2018-12-21T03:34:06.877Z,2.40
2018-12-21T03:36:35.557Z,2.50
2018-12-21T03:39:07.234Z,2.40
2018-12-21T03:41:36.724Z,2.40
2018-12-21T03:44:05.361Z,2.40
2018-12-21T03:46:33.987Z,2.40
2018-12-21T03:49:02.490Z,2.40
2018-12-21T03:51:31.013Z,2.40
2018-12-21T03:53:59.599Z,2.40
2018-12-21T03:56:28.109Z,2.50
2018-12-21T03:58:56.594Z,2.40
2018-12-21T04:01:25.149Z,2.40
2018-12-21T04:03:53.666Z,2.40
2018-12-21T04:06:22.159Z,2.40
2018-12-21T04:08:50.658Z,2.40
2018-12-21T04:11:19.154Z,2.50
2018-12-21T04:13:47.686Z,2.60
2018-12-21T04:16:16.175Z,2.60
2018-12-21T04:18:44.669Z,2.60
2018-12-21T04:21:13.154Z,2.60
2018-12-21T04:23:41.630Z,2.60
2018-12-21T04:26:10.138Z,2.60
2018-12-21T04:28:38.631Z,2.70
2018-12-21T04:31:07.137Z,2.70
2018-12-21T04:33:35.791Z,2.60
2018-12-21T04:36:04.313Z,2.70
2018-12-21T04:38:32.796Z,2.60
2018-12-21T04:41:01.270Z,2.60
2018-12-21T04:43:29.771Z,2.60
2018-12-21T04:45:58.269Z,2.50
2018-12-21T04:48:26.773Z,2.50
2018-12-21T04:50:55.282Z,2.50
2018-12-21T04:53:23.782Z,2.50
2018-12-21T04:55:52.301Z,2.50
2018-12-21T04:58:20.796Z,2.60
2018-12-21T05:00:49.296Z,2.50
2018-12-21T05:03:17.785Z,2.60
2018-12-21T05:05:46.275Z,2.60
2018-12-21T05:08:14.827Z,2.50
2018-12-21T05:10:43.934Z,2.60
2018-12-21T05:13:12.542Z,2.70
2018-12-21T05:15:47.454Z,2.70
2018-12-21T05:18:15.949Z,2.70
2018-12-21T05:20:44.449Z,2.70
2018-12-21T05:23:12.936Z,2.70
2018-12-21T05:25:41.430Z,2.70
2018-12-21T05:28:09.932Z,2.70
2018-12-21T05:30:38.422Z,2.60
2018-12-21T05:33:06.920Z,2.60
2018-12-21T05:35:35.416Z,2.60
2018-12-21T05:38:03.898Z,2.60
2018-12-21T05:40:32.388Z,2.70
2018-12-21T05:43:00.865Z,2.60
2018-12-21T05:45:29.386Z,2.60
2018-12-21T05:47:57.986Z,2.60
2018-12-21T05:50:26.473Z,2.70
2018-12-21T05:53:00.741Z,2.70
2018-12-21T05:55:25.544Z,2.70
2018-12-21T05:57:54.027Z,2.80
2018-12-21T06:00:22.522Z,2.70
2018-12-21T06:02:51.015Z,2.80
2018-12-21T06:05:19.494Z,2.80
2018-12-21T06:07:47.974Z,2.80
2018-12-21T06:10:16.508Z,2.80
2018-12-21T06:12:45.009Z,2.80
2018-12-21T06:15:13.632Z,2.80
2018-12-21T06:17:42.152Z,2.70
2018-12-21T06:20:10.644Z,2.70
2018-12-21T06:22:39.205Z,2.70
2018-12-21T06:25:07.714Z,2.80
2018-12-21T06:27:36.235Z,2.80
2018-12-21T06:30:05.512Z,2.80
2018-12-21T06:32:34.006Z,2.70
2018-12-21T06:35:02.512Z,2.70
2018-12-21T06:37:31.027Z,2.70
2018-12-21T06:39:59.510Z,2.80
2018-12-21T06:42:28.012Z,2.80
2018-12-21T06:44:56.525Z,2.80
2018-12-21T06:47:25.002Z,2.80
2018-12-21T06:49:53.488Z,2.80
2018-12-21T06:52:21.977Z,2.80
2018-12-21T06:54:50.459Z,2.90
2018-12-21T06:57:18.975Z,2.90
2018-12-21T06:59:47.467Z,2.80
2018-12-21T07:02:15.960Z,2.80
2018-12-21T07:04:44.476Z,2.80
2018-12-21T07:07:12.973Z,2.80
2018-12-21T07:09:41.463Z,2.80
2018-12-21T07:12:09.959Z,2.80
2018-12-21T07:14:38.455Z,2.80
2018-12-21T07:17:06.965Z,2.80
2018-12-21T07:19:35.473Z,2.80
2018-12-21T07:22:03.959Z,2.80
2018-12-21T07:24:32.448Z,2.80
2018-12-21T07:27:01.085Z,2.80
2018-12-21T07:29:29.564Z,2.90
2018-12-21T07:31:58.044Z,2.90
2018-12-21T07:34:26.538Z,2.90
2018-12-21T07:36:55.077Z,2.90
2018-12-21T07:39:23.690Z,2.90
2018-12-21T07:41:52.234Z,2.90
2018-12-21T07:44:20.748Z,2.90
2018-12-21T07:46:49.211Z,2.90
2018-12-21T07:49:17.718Z,3.00
2018-12-21T07:51:46.233Z,3.00
2018-12-21T07:54:14.726Z,3.00
2018-12-21T07:56:43.260Z,3.10
2018-12-21T07:59:11.773Z,3.10
2018-12-21T08:01:40.271Z,3.10
2018-12-21T08:04:08.765Z,3.20
2018-12-21T08:06:37.251Z,3.20
2018-12-21T08:09:07.252Z,3.20
2018-12-21T08:11:35.772Z,3.30
2018-12-21T08:14:04.290Z,3.30
2018-12-21T08:16:32.807Z,3.30
2018-12-21T08:19:01.326Z,3.30
2018-12-21T08:21:29.828Z,3.30
2018-12-21T08:23:58.310Z,3.30
2018-12-21T08:26:26.798Z,3.30
2018-12-21T08:28:55.277Z,3.40
2018-12-21T08:31:23.775Z,3.40
2018-12-21T08:33:52.279Z,3.40
2018-12-21T08:36:20.788Z,3.40
2018-12-21T08:38:49.320Z,3.50
2018-12-21T08:41:17.810Z,3.50
2018-12-21T08:43:46.326Z,3.50
2018-12-21T08:46:14.812Z,3.50
2018-12-21T08:48:43.300Z,3.50
2018-12-21T08:51:11.933Z,3.50
2018-12-21T08:53:40.444Z,3.50
2018-12-21T08:56:09.096Z,3.50
2018-12-21T08:58:37.590Z,3.50
2018-12-21T09:01:06.062Z,3.60
2018-12-21T09:03:34.550Z,3.60
2018-12-21T09:06:03.050Z,3.60
2018-12-21T09:08:31.543Z,3.60
2018-12-21T09:11:00.036Z,3.60
2018-12-21T09:13:28.553Z,3.60
2018-12-21T09:15:57.056Z,3.70
2018-12-21T09:18:25.558Z,3.70
2018-12-21T09:20:54.042Z,3.70
2018-12-21T09:23:22.557Z,3.70
2018-12-21T09:25:51.068Z,3.70
2018-12-21T09:28:19.558Z,3.70
2018-12-21T09:30:48.076Z,3.70
2018-12-21T09:33:16.650Z,3.70
2018-12-21T09:35:45.243Z,3.70
2018-12-21T09:38:13.848Z,3.80
2018-12-21T09:40:42.345Z,3.80
2018-12-21T09:43:10.848Z,3.80
2018-12-21T09:45:39.341Z,3.70
2018-12-21T09:48:07.826Z,3.70
2018-12-21T09:50:36.340Z,3.70
2018-12-21T09:53:05.157Z,3.70
2018-12-21T09:55:33.754Z,3.70
2018-12-21T09:58:02.243Z,3.70
2018-12-21T10:00:30.740Z,3.70
2018-12-21T10:02:59.205Z,3.70
2018-12-21T10:05:27.852Z,3.70
2018-12-21T10:07:56.341Z,3.70
2018-12-21T10:10:24.882Z,3.70
2018-12-21T10:12:53.557Z,3.70
2018-12-21T10:15:22.149Z,3.70
2018-12-21T10:17:50.644Z,3.70
2018-12-21T10:20:19.975Z,3.70
2018-12-21T10:22:48.697Z,3.70
2018-12-21T10:25:17.177Z,3.70
2018-12-21T10:27:45.674Z,3.70
2018-12-21T10:30:14.292Z,3.70
2018-12-21T10:32:42.785Z,3.70
2018-12-21T10:35:11.306Z,3.70
2018-12-21T10:37:39.814Z,3.70
2018-12-21T10:40:08.875Z,3.70
2018-12-21T10:42:37.385Z,3.70
2018-12-21T10:45:06.699Z,3.70
2018-12-21T10:47:35.210Z,3.70
2018-12-21T10:50:04.174Z,3.80
2018-12-21T10:52:32.873Z,3.80
2018-12-21T10:55:01.487Z,3.80
2018-12-21T10:57:30.069Z,3.90
2018-12-21T10:59:58.567Z,4.00
2018-12-21T11:02:27.037Z,3.90
2018-12-21T11:04:55.515Z,4.00
2018-12-21T11:07:24.004Z,4.00
2018-12-21T11:09:52.501Z,4.00
2018-12-21T11:12:21.008Z,3.90
2018-12-21T11:14:49.495Z,3.90
2018-12-21T11:17:17.998Z,3.80
2018-12-21T11:19:46.483Z,3.80
2018-12-21T11:22:15.054Z,3.70
2018-12-21T11:24:43.574Z,3.70
2018-12-21T11:27:12.173Z,3.70
2018-12-21T11:29:40.644Z,3.70
2018-12-21T11:32:09.367Z,3.60
2018-12-21T11:34:37.846Z,3.50
2018-12-21T11:37:07.846Z,3.50
2018-12-21T11:39:36.368Z,3.40
2018-12-21T11:42:04.842Z,3.40
2018-12-21T11:44:33.349Z,3.40
2018-12-21T11:47:01.856Z,3.40
2018-12-21T11:49:30.344Z,3.40
2018-12-21T11:51:58.869Z,3.30
2018-12-21T11:54:27.351Z,3.30
2018-12-21T11:56:56.036Z,3.30
2018-12-21T11:59:24.517Z,3.30
2018-12-21T12:01:53.033Z,3.20
2018-12-21T12:04:21.550Z,3.30
2018-12-21T12:06:50.034Z,3.20
2018-12-21T12:09:18.522Z,3.10
2018-12-21T12:11:47.003Z,3.10
2018-12-21T12:14:15.648Z,3.10
2018-12-21T12:16:44.153Z,3.10
2018-12-21T12:19:12.663Z,3.10
2018-12-21T12:21:41.203Z,3.10
2018-12-21T12:24:09.694Z,3.10
2018-12-21T12:26:44.413Z,3.20
2018-12-21T12:29:08.682Z,3.20
2018-12-21T12:31:37.322Z,3.20
2018-12-21T12:34:05.839Z,3.30
2018-12-21T12:36:34.809Z,3.30
2018-12-21T12:39:04.628Z,3.40
2018-12-21T12:41:33.197Z,3.40
2018-12-21T12:44:01.756Z,3.40
2018-12-21T12:46:30.271Z,3.40
2018-12-21T12:48:58.870Z,3.40
2018-12-21T12:51:27.419Z,3.40
2018-12-21T12:53:55.957Z,3.40
2018-12-21T12:56:24.548Z,3.40
2018-12-21T12:58:53.038Z,3.40
2018-12-21T13:01:21.594Z,3.50
2018-12-21T13:03:50.078Z,3.50
2018-12-21T13:06:18.608Z,3.50
2018-12-21T13:08:47.087Z,3.50
2018-12-21T13:11:15.595Z,3.50
2018-12-21T13:13:44.170Z,3.60
2018-12-21T13:16:12.813Z,3.60
2018-12-21T13:18:41.415Z,3.60
2018-12-21T13:21:09.932Z,3.60
2018-12-21T13:23:38.436Z,3.50
2018-12-21T13:26:06.944Z,3.50
2018-12-21T13:28:35.569Z,3.50
2018-12-21T13:31:04.189Z,3.50
2018-12-21T13:33:32.715Z,3.50
2018-12-21T13:36:01.216Z,3.50
2018-12-21T13:38:29.884Z,3.50
2018-12-21T13:40:58.394Z,3.50
2018-12-21T13:43:26.902Z,3.50
2018-12-21T13:45:55.368Z,3.50
2018-12-21T13:48:23.880Z,3.50
2018-12-21T13:50:52.382Z,3.50
2018-12-21T13:53:20.851Z,3.50
2018-12-21T13:55:49.354Z,3.50
2018-12-21T13:58:17.882Z,3.50
2018-12-21T14:00:46.369Z,3.50
2018-12-21T14:03:14.871Z,3.40
2018-12-21T14:05:43.360Z,3.40
2018-12-21T14:08:11.837Z,3.40
2018-12-21T14:10:40.398Z,3.30
2018-12-21T14:13:09.021Z,3.30
2018-12-21T14:15:37.539Z,3.30
2018-12-21T14:18:06.038Z,3.30
2018-12-21T14:20:34.678Z,3.20
2018-12-21T14:23:03.201Z,3.10
2018-12-21T14:25:31.730Z,3.10
2018-12-21T14:28:00.230Z,3.10
2018-12-21T14:30:29.702Z,3.10
2018-12-21T14:32:58.237Z,3.10
2018-12-21T14:35:26.864Z,3.10
2018-12-21T14:37:55.415Z,3.10
2018-12-21T14:40:23.932Z,3.10
2018-12-21T14:42:52.466Z,3.10
2018-12-21T14:45:21.064Z,3.20
2018-12-21T14:47:49.650Z,3.20
2018-12-21T14:50:18.147Z,3.20
2018-12-21T14:52:46.733Z,3.20
2018-12-21T14:55:15.222Z,3.20
2018-12-21T14:57:43.766Z,3.20
2018-12-21T15:00:13.776Z,3.30
2018-12-21T15:02:43.108Z,3.50
2018-12-21T15:05:11.666Z,3.50
2018-12-21T15:07:40.199Z,3.60
2018-12-21T15:10:10.192Z,3.60
2018-12-21T15:12:38.720Z,3.60
2018-12-21T15:15:08.582Z,3.60
2018-12-21T15:17:37.152Z,3.50
2018-12-21T15:20:09.172Z,3.50
2018-12-21T15:22:37.699Z,3.60
2018-12-21T15:25:06.856Z,3.60
2018-12-21T15:27:35.363Z,3.60
2018-12-21T15:30:05.687Z,3.70
2018-12-21T15:32:34.343Z,3.60
2018-12-21T15:35:02.881Z,3.70
2018-12-21T15:37:31.647Z,3.70
2018-12-21T15:40:00.347Z,3.70
2018-12-21T15:42:28.922Z,3.60
2018-12-21T15:44:57.445Z,3.70
2018-12-21T15:47:25.951Z,3.60
2018-12-21T15:49:54.466Z,3.70
2018-12-21T15:52:22.949Z,3.70
2018-12-21T15:54:51.457Z,3.70
2018-12-21T15:57:19.964Z,3.70
2018-12-21T15:59:48.476Z,3.70
2018-12-21T16:02:16.990Z,3.80
2018-12-21T16:04:45.483Z,3.80
2018-12-21T16:07:14.032Z,3.70
2018-12-21T16:09:42.533Z,3.70
2018-12-21T16:12:11.038Z,3.70
2018-12-21T16:14:39.613Z,3.80
2018-12-21T16:17:08.132Z,3.80
2018-12-21T16:19:36.794Z,3.80
2018-12-21T16:22:05.542Z,3.90
2018-12-21T16:24:34.085Z,3.90
2018-12-21T16:27:02.627Z,4.00
2018-12-21T16:29:31.135Z,4.00
2018-12-21T16:31:59.993Z,4.00
2018-12-21T16:34:28.533Z,4.00
2018-12-21T16:36:57.075Z,4.00
2018-12-21T16:39:25.590Z,4.10
2018-12-21T16:41:54.078Z,4.10
2018-12-21T16:44:22.753Z,4.00
2018-12-21T16:46:51.272Z,4.10
2018-12-21T16:49:19.797Z,4.20
2018-12-21T16:51:48.434Z,4.20
2018-12-21T16:54:18.167Z,4.20
2018-12-21T16:56:46.695Z,4.20
2018-12-21T16:59:15.267Z,4.20
2018-12-21T17:01:43.785Z,4.20
2018-12-21T17:04:12.293Z,4.20
2018-12-21T17:06:41.950Z,4.30
2018-12-21T17:09:10.450Z,4.20
2018-12-21T17:11:38.974Z,4.20
2018-12-21T17:14:07.897Z,4.30
2018-12-21T17:16:36.488Z,4.20
2018-12-21T17:19:14.278Z,4.30
2018-12-21T17:21:42.847Z,4.40
2018-12-21T17:24:11.353Z,4.30
2018-12-21T17:26:39.848Z,4.30
2018-12-21T17:29:08.416Z,4.50
2018-12-21T17:31:36.983Z,4.70
2018-12-21T17:34:05.606Z,4.90
2018-12-21T17:36:34.151Z,4.70
2018-12-21T17:39:03.310Z,4.70
2018-12-21T17:41:31.841Z,4.50
2018-12-21T17:44:00.351Z,4.70
2018-12-21T17:46:28.893Z,4.80
2018-12-21T17:48:57.548Z,4.70
2018-12-21T17:51:26.213Z,4.50
2018-12-21T17:53:54.856Z,4.60
2018-12-21T17:56:29.834Z,4.60
2018-12-21T17:58:53.961Z,4.70
2018-12-21T18:01:22.876Z,4.70
2018-12-21T18:04:00.652Z,4.70
2018-12-21T18:06:29.176Z,4.90
2018-12-21T18:08:57.667Z,4.80
2018-12-21T18:11:26.184Z,4.80
2018-12-21T18:13:54.701Z,4.80
2018-12-21T18:16:23.231Z,4.90
2018-12-21T18:18:51.811Z,4.80
2018-12-21T18:21:20.439Z,5.00
2018-12-21T18:23:49.221Z,4.80
2018-12-21T18:26:17.763Z,4.90
2018-12-21T18:28:46.273Z,4.90
2018-12-21T18:31:21.878Z,4.90
2018-12-21T18:33:50.448Z,4.90
2018-12-21T18:36:18.988Z,5.00
2018-12-21T18:38:47.669Z,5.10
2018-12-21T18:41:16.405Z,5.10
2018-12-21T18:43:44.923Z,5.30
2018-12-21T18:46:13.470Z,5.20
2018-12-21T18:48:41.996Z,5.20
2018-12-21T18:51:10.546Z,5.00
2018-12-21T18:53:39.063Z,5.00
2018-12-21T18:56:11.803Z,5.40
2018-12-21T18:58:40.386Z,5.20
2018-12-21T19:01:08.903Z,5.30
2018-12-21T19:03:37.397Z,5.20
2018-12-21T19:06:05.965Z,5.20
2018-12-21T19:08:34.480Z,5.10
2018-12-21T19:11:02.983Z,5.30
2018-12-21T19:13:31.532Z,5.30
2018-12-21T19:16:00.056Z,5.40
2018-12-21T19:18:28.617Z,5.30
2018-12-21T19:20:57.126Z,5.20
2018-12-21T19:23:25.631Z,5.40
2018-12-21T19:25:54.989Z,5.20
2018-12-21T19:28:23.483Z,5.50
2018-12-21T19:30:52.004Z,5.30
2018-12-21T19:33:20.616Z,5.20
2018-12-21T19:35:49.117Z,5.20
2018-12-21T19:38:17.708Z,5.20
2018-12-21T19:40:46.304Z,5.30
2018-12-21T19:43:14.914Z,5.20
2018-12-21T19:45:43.494Z,5.40
2018-12-21T19:48:12.190Z,5.60
2018-12-21T19:50:40.834Z,5.50
2018-12-21T19:53:09.417Z,5.50
2018-12-21T19:55:54.538Z,5.50
2018-12-21T19:58:23.170Z,5.50
2018-12-21T20:00:51.767Z,5.40
2018-12-21T20:03:20.298Z,5.20
2018-12-21T20:05:48.855Z,5.20
2018-12-21T20:08:17.408Z,5.50
2018-12-21T20:10:45.921Z,5.50
2018-12-21T20:13:14.450Z,5.70
2018-12-21T20:15:42.966Z,5.90
2018-12-21T20:18:11.575Z,5.90
2018-12-21T20:20:40.401Z,5.90
2018-12-21T20:23:09.006Z,5.90
2018-12-21T20:25:37.661Z,5.90
2018-12-21T20:28:07.138Z,5.80
2018-12-21T20:30:36.836Z,6.00
2018-12-21T20:33:05.822Z,5.90
2018-12-21T20:35:34.324Z,5.90
2018-12-21T20:38:03.386Z,5.90
2018-12-21T20:40:31.996Z,6.00
2018-12-21T20:43:00.508Z,6.10
2018-12-21T20:45:29.106Z,6.00
2018-12-21T20:47:57.673Z,5.90
2018-12-21T20:50:26.373Z,6.20
2018-12-21T20:52:54.897Z,6.10
2018-12-21T20:55:23.464Z,6.00
2018-12-21T20:57:55.965Z,6.00
2018-12-21T21:00:24.558Z,6.00
2018-12-21T21:02:53.080Z,6.30
2018-12-21T21:05:21.666Z,6.10
2018-12-21T21:07:50.218Z,6.10
2018-12-21T21:10:18.727Z,6.20
2018-12-21T21:12:47.207Z,6.00
2018-12-21T21:15:15.706Z,6.10
2018-12-21T21:17:44.239Z,6.20
2018-12-21T21:20:14.756Z,6.10
2018-12-21T21:22:43.347Z,6.10
2018-12-21T21:25:11.937Z,6.10
2018-12-21T21:27:40.524Z,6.00
2018-12-21T21:30:12.727Z,5.90
2018-12-21T21:32:41.267Z,5.90
2018-12-21T21:35:09.906Z,6.00
2018-12-21T21:37:38.443Z,6.20
2018-12-21T21:40:10.355Z,6.10
2018-12-21T21:42:38.877Z,6.00
2018-12-21T21:45:07.549Z,6.40
2018-12-21T21:47:36.187Z,6.40
2018-12-21T21:50:05.584Z,6.40
2018-12-21T21:52:34.096Z,6.20
2018-12-21T21:55:02.609Z,6.40
2018-12-21T21:57:38.955Z,6.30
2018-12-21T22:00:01.698Z,6.40
2018-12-21T22:02:30.181Z,6.20
2018-12-21T22:04:58.672Z,6.10
2018-12-21T22:07:27.167Z,6.50
2018-12-21T22:09:55.646Z,6.60
2018-12-21T22:12:24.127Z,6.70
2018-12-21T22:14:52.642Z,6.90
2018-12-21T22:17:21.222Z,6.90
2018-12-21T22:19:49.885Z,6.90
2018-12-21T22:22:18.468Z,6.80
2018-12-21T22:24:47.002Z,6.80
2018-12-21T22:27:15.533Z,7.10
2018-12-21T22:29:44.071Z,7.10
2018-12-21T22:32:12.565Z,6.80
2018-12-21T22:34:41.050Z,6.50
2018-12-21T22:37:09.536Z,6.60
2018-12-21T22:39:38.130Z,6.60
2018-12-21T22:42:06.602Z,6.80
2018-12-21T22:44:35.111Z,6.90
2018-12-21T22:47:03.615Z,7.00
2018-12-21T22:49:32.107Z,7.00
2018-12-21T22:52:00.578Z,7.30
2018-12-21T22:54:29.059Z,7.20
2018-12-21T22:56:57.561Z,7.40
2018-12-21T22:59:26.216Z,7.20
2018-12-21T23:01:54.814Z,7.30
2018-12-21T23:04:23.329Z,7.60
2018-12-21T23:06:51.870Z,7.50
2018-12-21T23:09:20.375Z,7.70
2018-12-21T23:11:48.921Z,7.70
2018-12-21T23:14:17.394Z,7.70
2018-12-21T23:16:45.905Z,7.80
2018-12-21T23:19:14.388Z,7.80
2018-12-21T23:21:43.023Z,7.90
2018-12-21T23:24:11.535Z,7.90
2018-12-21T23:26:40.011Z,7.90
2018-12-21T23:29:08.490Z,7.80
2018-12-21T23:31:36.987Z,7.80
2018-12-21T23:34:05.538Z,7.90
2018-12-21T23:36:34.028Z,8.00
2018-12-21T23:39:02.512Z,8.00
2018-12-21T23:41:31.024Z,7.90
2018-12-21T23:43:59.528Z,7.80
2018-12-21T23:46:28.051Z,7.70
2018-12-21T23:48:56.552Z,7.70
2018-12-21T23:51:25.095Z,7.50
2018-12-21T23:53:53.592Z,7.60
2018-12-21T23:56:22.128Z,7.40
2018-12-21T23:58:50.657Z,7.40
